Time;durP1;ratioP1;P1;durP2;ratioP2;P2;SDS_P1;SDS_P2;PMS_P1;PMS_P2;Temp;Humidity;BMP_temperature;BMP_pressure;BME280_temperature;BME280_humidity;BME280_pressure;Samples;Min_cycle;Max_cycle;Signal;HPM_P1;HPM_P2
2022/03/05 00:00:00;;;;;;;;;15.25;13.00;;;;;21.14;39.81;101489.72;5071677;28;51073;-50
2022/03/05 00:02:25;;;;;;;;;16.75;16.25;;;;;21.13;39.36;101483.38;5064320;28;51247;-50
2022/03/05 00:04:51;;;;;;;;;18.50;18.50;;;;;21.12;39.28;101480.81;5057335;28;51002;-52
2022/03/05 00:07:19;;;;;;;;;19.75;18.00;;;;;21.11;39.16;101471.72;5069990;28;53780;-49
2022/03/05 00:09:45;;;;;;;;;19.50;18.00;;;;;21.11;39.28;101476.38;5057174;27;51132;-52
2022/03/05 00:12:10;;;;;;;;;19.00;15.25;;;;;21.11;39.55;101468.13;5062691;27;51024;-48
2022/03/05 00:14:36;;;;;;;;;21.00;20.50;;;;;21.10;39.18;101478.28;5057805;28;50981;-52
2022/03/05 00:17:01;;;;;;;;;17.50;15.00;;;;;21.08;39.21;101477.66;5057149;27;50987;-49
2022/03/05 00:19:26;;;;;;;;;17.00;14.25;;;;;21.08;39.21;101471.31;5063687;28;51211;-50
2022/03/05 00:21:54;;;;;;;;;16.75;15.50;;;;;21.07;39.15;101472.38;5066707;28;51253;-47
2022/03/05 00:24:19;;;;;;;;;16.00;14.50;;;;;21.06;38.97;101468.75;5064269;27;51155;-53
2022/03/05 00:26:44;;;;;;;;;17.50;16.25;;;;;21.06;39.28;101465.16;5073657;27;51286;-46
2022/03/05 00:29:10;;;;;;;;;19.25;17.75;;;;;21.06;39.27;101470.66;5060221;27;51297;-49
2022/03/05 00:31:36;;;;;;;;;16.25;14.50;;;;;21.06;39.18;101467.91;5061359;28;51220;-50
2022/03/05 00:34:01;;;;;;;;;17.00;15.25;;;;;21.05;39.88;101469.81;5057056;27;51291;-47
2022/03/05 00:36:27;;;;;;;;;22.75;21.50;;;;;21.06;39.60;101470.66;5062814;28;51115;-50
2022/03/05 00:38:52;;;;;;;;;17.75;17.75;;;;;21.04;39.49;101471.69;5059653;28;51826;-48
2022/03/05 00:41:17;;;;;;;;;20.00;17.00;;;;;21.05;39.47;101464.31;5067367;28;50915;-49
2022/03/05 00:43:42;;;;;;;;;16.50;16.25;;;;;21.04;39.92;101473.59;5058487;27;51108;-48
2022/03/05 00:46:08;;;;;;;;;18.50;15.00;;;;;21.02;39.75;101471.06;5054546;28;51709;-51
2022/03/05 00:48:33;;;;;;;;;13.50;13.50;;;;;21.03;39.76;101478.28;5059272;28;51099;-47
2022/03/05 00:50:59;;;;;;;;;21.50;19.75;;;;;21.02;39.35;101467.47;5060770;28;50978;-52
2022/03/05 00:53:24;;;;;;;;;15.25;15.00;;;;;21.00;39.73;101470.44;5060554;28;51288;-47
2022/03/05 00:55:49;;;;;;;;;19.25;16.50;;;;;21.01;39.46;101474.03;5061689;28;51925;-46
2022/03/05 00:58:15;;;;;;;;;17.00;15.25;;;;;21.00;39.86;101478.69;5060702;27;51117;-47
2022/03/05 01:00:41;;;;;;;;;18.75;16.00;;;;;20.99;39.74;101468.75;5067104;28;51211;-49
2022/03/05 01:03:07;;;;;;;;;15.00;15.00;;;;;20.99;39.77;101466.00;5060763;28;51160;-52
2022/03/05 01:05:32;;;;;;;;;17.50;15.75;;;;;20.99;39.44;101470.66;5066811;28;51714;-46
2022/03/05 01:07:57;;;;;;;;;15.75;13.75;;;;;20.99;39.66;101471.50;5066782;28;51239;-51
2022/03/05 01:10:23;;;;;;;;;22.50;19.25;;;;;20.97;39.24;101467.28;5060360;28;51280;-50
2022/03/05 01:12:49;;;;;;;;;11.75;11.00;;;;;20.97;38.91;101473.63;5064947;28;51257;-52
2022/03/05 01:15:14;;;;;;;;;15.25;14.50;;;;;20.95;39.72;101461.13;5065180;28;51281;-50
2022/03/05 01:17:40;;;;;;;;;15.75;15.50;;;;;20.95;39.50;101461.13;5076023;27;51162;-51
2022/03/05 01:20:07;;;;;;;;;16.50;15.75;;;;;20.94;39.59;101463.00;5067207;27;51094;-50
2022/03/05 01:22:32;;;;;;;;;15.75;15.75;;;;;20.93;39.13;101458.56;5060418;28;51120;-49
2022/03/05 01:24:57;;;;;;;;;15.25;12.50;;;;;20.93;39.17;101465.97;5057636;28;51964;-47
2022/03/05 01:27:23;;;;;;;;;12.75;12.75;;;;;20.91;39.12;101462.59;5058930;28;51073;-52
2022/03/05 01:29:49;;;;;;;;;15.50;13.50;;;;;20.90;39.04;101463.66;5072069;27;51185;-47
2022/03/05 01:32:14;;;;;;;;;20.50;17.25;;;;;20.88;39.63;101457.50;5065851;28;51188;-49
2022/03/05 01:34:40;;;;;;;;;19.00;16.00;;;;;20.87;39.11;101462.19;5076790;27;51845;-49
2022/03/05 01:37:05;;;;;;;;;15.50;15.50;;;;;20.87;39.71;101464.09;5076013;27;51020;-48
2022/03/05 01:39:31;;;;;;;;;16.25;14.00;;;;;20.86;39.54;101454.13;5077756;27;50994;-49
2022/03/05 01:41:56;;;;;;;;;19.25;18.25;;;;;20.85;39.52;101460.69;5068098;27;51166;-51
2022/03/05 01:44:23;;;;;;;;;16.00;14.75;;;;;20.83;39.56;101458.13;5075610;28;51260;-49
2022/03/05 01:46:49;;;;;;;;;14.50;12.75;;;;;20.82;39.54;101453.69;5076078;27;51494;-48
2022/03/05 01:49:14;;;;;;;;;15.50;13.50;;;;;20.80;39.40;101464.06;5077455;27;51282;-48
2022/03/05 01:51:41;;;;;;;;;15.25;15.25;;;;;20.79;39.18;101461.53;5069223;27;51648;-48
2022/03/05 01:54:08;;;;;;;;;14.75;14.00;;;;;20.77;39.51;101453.47;5072763;28;52131;-47
2022/03/05 01:56:34;;;;;;;;;16.75;14.75;;;;;20.77;39.25;101460.88;5058406;28;51132;-47
2022/03/05 01:59:00;;;;;;;;;18.25;15.00;;;;;20.75;39.14;101464.69;5056427;28;51064;-51
2022/03/05 02:01:27;;;;;;;;;14.50;14.00;;;;;20.74;39.13;101468.50;5062506;28;50967;-50
2022/03/05 02:03:53;;;;;;;;;14.00;13.50;;;;;20.73;39.07;101472.28;5072683;28;51125;-48
2022/03/05 02:06:19;;;;;;;;;15.50;13.25;;;;;20.72;39.30;101462.34;5075602;27;51068;-50
2022/03/05 02:08:44;;;;;;;;;15.50;13.00;;;;;20.71;38.89;101457.06;5074685;27;51302;-50
2022/03/05 02:11:10;;;;;;;;;12.00;11.00;;;;;20.70;39.41;101461.72;5061649;28;51127;-50
2022/03/05 02:13:36;;;;;;;;;11.50;11.00;;;;;20.70;39.55;101458.97;5059806;28;51896;-51
2022/03/05 02:16:02;;;;;;;;;17.00;15.75;;;;;20.71;39.52;101462.56;5058517;28;51161;-50
2022/03/05 02:18:27;;;;;;;;;12.50;12.50;;;;;20.69;38.93;101462.78;5068827;28;51115;-48
2022/03/05 02:20:53;;;;;;;;;13.25;12.00;;;;;20.67;39.38;101451.13;5075511;27;51356;-48
2022/03/05 02:23:19;;;;;;;;;14.75;13.00;;;;;20.68;38.94;101457.47;5062364;28;51170;-52
2022/03/05 02:26:00;;;;;;;;;14.75;13.50;;;;;20.67;38.84;101462.13;5058132;28;51104;-49
2022/03/05 02:28:27;;;;;;;;;14.00;10.75;;;;;20.66;39.14;101462.34;5057029;28;51105;-50
2022/03/05 02:30:54;;;;;;;;;15.00;14.25;;;;;20.65;39.35;101456.00;5062353;28;51423;-52
2022/03/05 02:33:19;;;;;;;;;12.25;12.25;;;;;20.63;39.30;101451.75;5060638;28;51183;-52
2022/03/05 02:35:45;;;;;;;;;13.75;12.00;;;;;20.63;39.30;101454.50;5058260;28;51147;-49
2022/03/05 02:38:16;;;;;;;;;13.75;12.75;;;;;20.62;39.12;101448.13;5074300;28;51106;-52
2022/03/05 02:40:43;;;;;;;;;14.00;11.25;;;;;20.61;39.06;101451.09;5057837;28;51180;-50
2022/03/05 02:43:09;;;;;;;;;14.25;14.25;;;;;20.59;39.29;101445.81;5070908;28;51814;-51
2022/03/05 02:45:35;;;;;;;;;10.75;10.75;;;;;20.59;39.23;101445.81;5058746;27;51271;-53
2022/03/05 02:48:03;;;;;;;;;13.75;11.50;;;;;20.58;39.29;101454.28;5075264;28;51115;-53
2022/03/05 02:50:29;;;;;;;;;13.25;12.25;;;;;20.57;39.54;101445.19;5076597;27;50958;-47
2022/03/05 02:52:54;;;;;;;;;11.50;11.50;;;;;20.57;38.91;101444.34;5067286;27;51852;-56
2022/03/05 02:55:20;;;;;;;;;17.25;12.50;;;;;20.55;39.23;101441.78;5075190;28;51181;-52
2022/03/05 02:57:45;;;;;;;;;10.50;10.00;;;;;20.55;39.00;101441.78;5076541;27;51529;-50
2022/03/05 03:00:11;;;;;;;;;13.50;12.00;;;;;20.54;38.88;101442.84;5076466;27;51076;-48
2022/03/05 03:02:37;;;;;;;;;13.50;11.75;;;;;20.54;38.72;101444.75;5065519;27;51740;-51
2022/03/05 03:05:03;;;;;;;;;14.50;11.75;;;;;20.53;38.98;101443.91;5067871;28;51022;-49
2022/03/05 03:07:28;;;;;;;;;13.25;10.75;;;;;20.52;39.06;101433.94;5076198;27;51143;-48
2022/03/05 03:09:54;;;;;;;;;15.25;11.25;;;;;20.52;39.25;101442.19;5074411;28;51388;-52
2022/03/05 03:12:19;;;;;;;;;10.75;10.00;;;;;20.52;38.79;101433.09;5069752;27;51820;-52
2022/03/05 03:14:44;;;;;;;;;15.25;14.00;;;;;20.51;38.95;101442.41;5056389;28;50999;-52
2022/03/05 03:17:10;;;;;;;;;9.75;9.25;;;;;20.50;38.95;101436.03;5070809;28;51193;-52
2022/03/05 03:19:35;;;;;;;;;13.25;12.00;;;;;20.49;39.18;101436.25;5075850;27;51052;-52
2022/03/05 03:22:00;;;;;;;;;11.50;8.00;;;;;20.49;39.23;101439.84;5066101;27;52082;-46
2022/03/05 03:24:26;;;;;;;;;14.00;11.75;;;;;20.49;38.99;101430.75;5070820;27;51026;-50
2022/03/05 03:26:51;;;;;;;;;12.75;11.50;;;;;20.45;39.14;101431.19;5062716;28;51100;-50
2022/03/05 03:29:16;;;;;;;;;7.50;7.50;;;;;20.46;39.26;101432.03;5068112;27;51273;-50
2022/03/05 03:31:42;;;;;;;;;13.75;13.00;;;;;20.45;38.92;101430.34;5062526;28;53802;-52
2022/03/05 03:34:07;;;;;;;;;12.00;10.75;;;;;20.44;39.00;101434.16;5075764;27;50950;-50
2022/03/05 03:36:32;;;;;;;;;15.25;11.75;;;;;20.44;39.25;101436.91;5075361;27;51111;-52
2022/03/05 03:38:58;;;;;;;;;13.25;12.75;;;;;20.43;38.85;101435.22;5072423;27;50946;-46
2022/03/05 03:41:23;;;;;;;;;13.00;11.25;;;;;20.42;39.04;101428.81;5060622;28;51040;-48
2022/03/05 03:43:48;;;;;;;;;11.25;9.75;;;;;20.42;38.94;101438.94;5067255;28;51075;-48
2022/03/05 03:46:14;;;;;;;;;12.50;11.75;;;;;20.41;39.12;101431.75;5075002;27;51210;-50
2022/03/05 03:48:39;;;;;;;;;10.00;10.00;;;;;20.41;38.88;101434.50;5075973;28;51172;-52
2022/03/05 03:51:05;;;;;;;;;11.00;11.00;;;;;20.40;38.76;101428.16;5058779;28;51718;-50
2022/03/05 03:53:30;;;;;;;;;12.50;11.50;;;;;20.40;38.96;101430.06;5071246;28;51008;-50
2022/03/05 03:55:56;;;;;;;;;9.75;8.50;;;;;20.39;39.11;101439.38;5075497;27;51093;-46
2022/03/05 03:58:21;;;;;;;;;13.50;10.75;;;;;20.39;39.09;101439.38;5075821;27;51562;-51
2022/03/05 04:00:46;;;;;;;;;8.75;8.75;;;;;20.38;38.69;101444.03;5057970;27;51982;-49
2022/03/05 04:03:12;;;;;;;;;7.50;7.50;;;;;20.37;38.80;101439.59;5063945;28;51234;-53
2022/03/05 04:05:37;;;;;;;;;6.50;6.50;;;;;20.36;38.62;101440.66;5055700;28;51084;-51
2022/03/05 04:10:46;;;;;;;;;11.00;9.75;;;;;20.35;39.16;101441.72;5056488;28;51262;-46
2022/03/05 04:13:12;;;;;;;;;10.75;9.75;;;;;20.35;39.07;101435.34;5060518;28;51083;-51
2022/03/05 04:15:38;;;;;;;;;11.25;10.50;;;;;20.34;38.67;101439.16;5071999;28;51068;-47
2022/03/05 04:18:03;;;;;;;;;11.00;11.00;;;;;20.34;38.76;101444.66;5054644;28;51325;-52
2022/03/05 04:20:29;;;;;;;;;11.25;11.00;;;;;20.33;38.91;101435.56;5068976;28;51760;-52
2022/03/05 04:22:54;;;;;;;;;11.00;8.25;;;;;20.32;38.62;101436.63;5072680;27;51071;-57
2022/03/05 04:25:19;;;;;;;;;10.25;10.25;;;;;20.32;39.00;101444.88;5063340;27;51195;-52
2022/03/05 04:27:45;;;;;;;;;13.00;11.75;;;;;20.31;38.95;101434.91;5059388;27;51069;-50
2022/03/05 04:30:11;;;;;;;;;10.75;10.00;;;;;20.32;38.51;101446.75;5072778;27;51882;-52
2022/03/05 04:32:38;;;;;;;;;11.75;10.00;;;;;20.30;39.04;101432.38;5068039;27;51033;-47
2022/03/05 04:35:05;;;;;;;;;11.25;10.75;;;;;20.30;39.09;101440.63;5070255;28;51060;-50
2022/03/05 04:37:30;;;;;;;;;12.00;11.00;;;;;20.30;38.78;101449.72;5072149;27;51152;-51
2022/03/05 04:39:55;;;;;;;;;10.50;9.75;;;;;20.29;38.86;101447.16;5059712;28;52004;-51
2022/03/05 04:42:21;;;;;;;;;13.00;9.25;;;;;20.28;38.99;101446.31;5072280;27;51056;-50
2022/03/05 04:44:46;;;;;;;;;12.25;11.00;;;;;20.28;39.09;101449.09;5078797;28;51222;-46
2022/03/05 04:47:11;;;;;;;;;11.75;11.25;;;;;20.27;38.77;101449.28;5074097;27;51132;-49
2022/03/05 04:49:37;;;;;;;;;13.00;10.75;;;;;20.26;38.63;101447.59;5066852;28;51037;-47
2022/03/05 04:52:03;;;;;;;;;11.75;11.75;;;;;20.26;39.16;101451.19;5059699;28;51148;-52
2022/03/05 04:54:30;;;;;;;;;10.75;10.75;;;;;20.26;38.94;101453.94;5058332;28;51089;-51
2022/03/05 04:56:56;;;;;;;;;8.50;8.50;;;;;20.25;39.14;101456.91;5059026;28;51169;-49
2022/03/05 04:59:22;;;;;;;;;12.00;10.00;;;;;20.24;38.65;101450.56;5071805;28;51388;-51
2022/03/05 05:01:47;;;;;;;;;11.00;10.50;;;;;20.24;38.83;101452.47;5076181;27;51168;-51
2022/03/05 05:04:13;;;;;;;;;12.25;12.00;;;;;20.23;38.95;101448.88;5058648;28;50993;-51
2022/03/05 05:06:38;;;;;;;;;9.75;9.75;;;;;20.24;39.01;101453.31;5058538;28;51260;-53
2022/03/05 05:09:04;;;;;;;;;12.00;9.25;;;;;20.24;38.92;101455.22;5059799;28;51172;-49
2022/03/05 05:11:30;;;;;;;;;9.50;9.50;;;;;20.24;39.06;101450.56;5075958;27;51036;-50
2022/03/05 05:13:55;;;;;;;;;9.25;9.25;;;;;20.24;39.23;101449.72;5069542;27;51301;-50
2022/03/05 05:16:20;;;;;;;;;9.00;9.00;;;;;20.23;38.88;101459.88;5067763;28;51235;-53
2022/03/05 05:21:30;;;;;;;;;14.50;12.00;;;;;20.21;38.75;101461.94;5059224;28;51008;-52
2022/03/05 05:23:55;;;;;;;;;9.25;7.25;;;;;20.21;39.01;101463.84;5074522;28;51133;-49
2022/03/05 05:26:20;;;;;;;;;9.25;8.25;;;;;20.20;38.83;101454.75;5077535;27;51289;-51
2022/03/05 05:28:46;;;;;;;;;9.75;8.25;;;;;20.19;38.96;101467.66;5077704;27;51729;-51
2022/03/05 05:31:11;;;;;;;;;10.25;7.75;;;;;20.19;39.09;101469.56;5066899;27;51209;-51
2022/03/05 05:33:39;;;;;;;;;9.75;8.25;;;;;20.19;38.98;101464.06;5076099;28;52458;-51
2022/03/05 05:36:05;;;;;;;;;10.00;7.50;;;;;20.17;39.18;101472.53;5077986;27;51307;-48
2022/03/05 05:38:31;;;;;;;;;11.00;10.25;;;;;20.17;38.61;101472.53;5070868;28;51795;-49
2022/03/05 05:40:56;;;;;;;;;9.00;8.75;;;;;20.17;38.84;101475.28;5057978;28;51029;-49
2022/03/05 05:43:21;;;;;;;;;9.00;8.00;;;;;20.16;38.77;101481.00;5077764;27;51487;-51
2022/03/05 05:45:47;;;;;;;;;10.50;8.50;;;;;20.15;39.01;101484.81;5077954;27;51305;-51
2022/03/05 05:48:12;;;;;;;;;11.50;8.25;;;;;20.15;38.87;101479.28;5069539;27;51055;-49
2022/03/05 05:50:38;;;;;;;;;11.00;9.50;;;;;20.14;38.55;101475.69;5073277;28;51214;-50
2022/03/05 05:53:03;;;;;;;;;11.25;9.75;;;;;20.14;39.00;101478.44;5065152;28;51490;-50
2022/03/05 05:55:29;;;;;;;;;11.75;11.75;;;;;20.13;38.71;101482.25;5057956;28;51389;-50
2022/03/05 05:57:54;;;;;;;;;11.50;10.50;;;;;20.14;38.78;101488.59;5066602;28;51628;-49
2022/03/05 06:00:19;;;;;;;;;9.00;9.00;;;;;20.11;38.80;101476.13;5057833;27;51274;-51
2022/03/05 06:02:45;;;;;;;;;11.50;9.50;;;;;20.11;38.90;101487.13;5076375;28;51079;-48
2022/03/05 06:05:10;;;;;;;;;11.25;9.50;;;;;20.10;38.70;101482.66;5059831;27;51362;-53
2022/03/05 06:07:36;;;;;;;;;9.75;9.75;;;;;20.10;38.95;101488.16;5066627;28;51878;-52
2022/03/05 06:10:01;;;;;;;;;10.25;8.50;;;;;20.10;38.72;101487.28;5057527;28;51425;-51
2022/03/05 06:12:26;;;;;;;;;11.75;10.00;;;;;20.09;38.76;101482.84;5065856;28;51107;-53
2022/03/05 06:14:52;;;;;;;;;11.25;9.75;;;;;20.09;38.76;101486.44;5074181;27;51052;-49
2022/03/05 06:17:17;;;;;;;;;11.00;10.25;;;;;20.09;38.72;101491.09;5066429;27;51284;-49
2022/03/05 06:19:44;;;;;;;;;10.50;10.50;;;;;20.08;38.60;101490.25;5057454;28;51336;-51
2022/03/05 06:22:09;;;;;;;;;12.00;9.50;;;;;20.08;38.72;101493.00;5065924;28;51501;-48
2022/03/05 06:24:34;;;;;;;;;9.25;9.25;;;;;20.07;38.46;101493.22;5058087;28;51263;-51
2022/03/05 06:27:00;;;;;;;;;8.50;8.50;;;;;20.07;38.62;101487.72;5065956;28;51789;-52
2022/03/05 06:29:25;;;;;;;;;11.00;9.75;;;;;20.07;38.82;101493.22;5058591;27;51026;-48
2022/03/05 06:31:52;;;;;;;;;13.25;12.25;;;;;20.05;39.18;101487.94;5069658;28;51261;-51
2022/03/05 06:34:17;;;;;;;;;8.00;8.00;;;;;20.05;38.71;101496.16;5057283;28;51154;-49
2022/03/05 06:36:43;;;;;;;;;11.00;9.50;;;;;20.05;38.78;101493.41;5056974;28;51064;-50
2022/03/05 06:39:09;;;;;;;;;9.75;8.25;;;;;20.05;38.75;101498.06;5056774;28;51171;-49
2022/03/05 06:41:34;;;;;;;;;10.00;9.25;;;;;20.04;38.64;101502.72;5064746;28;51100;-50
2022/03/05 06:43:59;;;;;;;;;11.00;11.00;;;;;20.04;38.56;101501.88;5060528;28;51060;-50
2022/03/05 06:46:25;;;;;;;;;11.25;10.25;;;;;20.04;38.71;101502.72;5073442;27;51108;-46
2022/03/05 06:48:50;;;;;;;;;10.75;9.25;;;;;20.04;38.60;101507.38;5074685;27;51114;-51
2022/03/05 06:51:15;;;;;;;;;9.25;9.25;;;;;20.03;38.67;101503.78;5061444;28;51053;-48
2022/03/05 06:53:41;;;;;;;;;10.00;9.00;;;;;20.02;38.57;101513.09;5057117;28;51171;-50
2022/03/05 06:56:06;;;;;;;;;9.50;9.50;;;;;20.02;39.02;101515.84;5063194;27;51089;-51
2022/03/05 06:58:31;;;;;;;;;11.00;9.00;;;;;20.02;38.96;101512.25;5058838;28;51053;-51
2022/03/05 07:00:57;;;;;;;;;12.50;10.25;;;;;20.02;38.64;101517.75;5075237;27;51217;-49
2022/03/05 07:03:22;;;;;;;;;9.00;7.50;;;;;20.01;39.19;101527.91;5076158;27;51049;-50
2022/03/05 07:05:47;;;;;;;;;17.50;14.50;;;;;20.01;38.57;101530.66;5070854;27;51202;-51
2022/03/05 07:08:13;;;;;;;;;24.25;18.00;;;;;20.03;38.60;101535.94;5079155;27;51092;-49
2022/03/05 07:10:38;;;;;;;;;29.00;25.75;;;;;20.01;38.09;101533.41;5068986;27;51390;-50
2022/03/05 07:13:04;;;;;;;;;25.25;21.50;;;;;20.01;38.16;101536.16;5064462;27;51303;-51
2022/03/05 07:15:30;;;;;;;;;25.25;22.00;;;;;19.99;38.28;101540.13;5057578;28;51958;-47
2022/03/05 07:17:55;;;;;;;;;28.00;24.25;;;;;19.97;38.27;101531.25;5064225;28;51058;-47
2022/03/05 07:20:21;;;;;;;;;24.00;19.50;;;;;20.01;38.06;101541.66;5069424;28;51044;-51
2022/03/05 07:22:46;;;;;;;;;19.50;16.25;;;;;20.06;38.13;101536.38;5078664;27;51350;-50
2022/03/05 07:25:12;;;;;;;;;20.50;18.00;;;;;20.16;37.95;101528.59;5059269;27;51024;-50
2022/03/05 07:27:38;;;;;;;;;18.00;18.00;;;;;20.27;38.19;101537.31;5058535;28;51120;-51
2022/03/05 07:30:05;;;;;;;;;12.75;12.50;;;;;20.37;38.15;101537.81;5076094;27;51212;-50
2022/03/05 07:32:30;;;;;;;;;14.75;12.75;;;;;20.46;37.59;101542.97;5075701;27;51342;-51
2022/03/05 07:34:56;;;;;;;;;17.00;14.00;;;;;20.57;37.74;101533.25;5065917;28;51051;-48
2022/03/05 07:37:21;;;;;;;;;11.75;10.50;;;;;20.68;37.82;101540.06;5071815;27;51212;-47
2022/03/05 07:39:46;;;;;;;;;16.75;13.25;;;;;20.77;37.89;101546.25;5055679;28;51239;-52
2022/03/05 07:42:11;;;;;;;;;9.75;9.75;;;;;20.87;37.54;101542.03;5065186;28;51133;-50
2022/03/05 07:44:37;;;;;;;;;10.00;9.50;;;;;20.93;37.79;101545.84;5062908;27;50965;-47
2022/03/05 07:47:03;;;;;;;;;8.25;8.25;;;;;20.95;37.55;101552.88;5059081;28;51138;-49
2022/03/05 07:49:29;;;;;;;;;12.50;10.00;;;;;20.96;37.67;101553.72;5063906;27;51090;-47
2022/03/05 07:51:56;;;;;;;;;10.25;10.00;;;;;20.96;37.44;101557.31;5055896;28;50970;-51
2022/03/05 07:54:22;;;;;;;;;10.00;10.00;;;;;20.98;37.43;101557.09;5064961;28;51932;-51
2022/03/05 07:56:47;;;;;;;;;13.00;11.25;;;;;20.99;37.71;101556.88;5073488;27;51146;-47
2022/03/05 07:59:13;;;;;;;;;13.25;11.75;;;;;21.00;37.68;101566.00;5071951;27;51188;-51
2022/03/05 08:01:38;;;;;;;;;7.75;7.25;;;;;21.01;37.39;101557.53;5067234;27;51167;-52
2022/03/05 08:04:03;;;;;;;;;8.50;8.50;;;;;21.03;37.24;101560.06;5065654;28;51866;-53
2022/03/05 08:06:29;;;;;;;;;14.00;10.50;;;;;21.06;37.69;101559.66;5064647;27;51168;-47
2022/03/05 08:08:57;;;;;;;;;9.25;9.25;;;;;21.08;37.69;101568.56;5066183;28;51371;-52
2022/03/05 08:11:23;;;;;;;;;11.50;9.25;;;;;21.10;37.69;101554.56;5073478;27;51046;-50
2022/03/05 08:13:48;;;;;;;;;9.00;9.00;;;;;21.14;37.93;101562.19;5075240;27;51123;-47
2022/03/05 08:16:13;;;;;;;;;8.25;7.50;;;;;21.15;37.47;101558.38;5073819;27;51033;-47
2022/03/05 08:18:39;;;;;;;;;9.25;7.25;;;;;21.16;37.38;101560.09;5063781;28;52615;-52
2022/03/05 08:21:04;;;;;;;;;8.50;8.50;;;;;21.18;37.76;101565.41;5064088;28;51119;-52
2022/03/05 08:23:29;;;;;;;;;7.50;7.50;;;;;21.20;37.34;101572.41;5065906;27;51216;-52
2022/03/05 08:25:55;;;;;;;;;8.25;8.25;;;;;21.21;37.54;101574.09;5065348;28;51076;-49
2022/03/05 08:28:22;;;;;;;;;9.25;8.00;;;;;21.23;37.37;101569.22;5069178;27;51066;-52
2022/03/05 08:30:47;;;;;;;;;9.75;9.00;;;;;21.25;37.65;101557.97;5066275;27;51045;-50
2022/03/05 08:33:12;;;;;;;;;6.00;6.00;;;;;21.26;37.14;101563.34;5072146;27;51173;-51
2022/03/05 08:35:38;;;;;;;;;10.50;9.50;;;;;21.27;37.18;101566.94;5056650;28;51061;-49
2022/03/05 08:38:03;;;;;;;;;11.00;9.00;;;;;21.27;37.81;101562.28;5057450;28;51113;-47
2022/03/05 08:40:29;;;;;;;;;12.75;9.75;;;;;21.30;37.39;101566.50;5071032;27;51251;-46
2022/03/05 08:42:54;;;;;;;;;7.25;7.00;;;;;21.32;37.54;101569.91;5055377;28;51638;-47
2022/03/05 08:45:20;;;;;;;;;7.00;6.75;;;;;21.33;37.83;101569.69;5065857;28;51289;-47
2022/03/05 08:47:45;;;;;;;;;14.75;10.75;;;;;21.37;37.51;101572.03;5067364;27;51067;-50
2022/03/05 08:50:11;;;;;;;;;9.00;8.00;;;;;21.38;38.04;101559.94;5070406;27;51390;-49
2022/03/05 08:52:36;;;;;;;;;8.50;7.50;;;;;21.39;37.76;101568.00;5066473;27;51210;-47
2022/03/05 08:55:07;;;;;;;;;8.75;8.75;;;;;21.40;37.65;101574.38;5057054;27;51236;-50
2022/03/05 08:57:32;;;;;;;;;8.75;8.75;;;;;21.40;37.63;101577.13;5063756;27;51283;-55
2022/03/05 08:59:58;;;;;;;;;11.75;9.75;;;;;21.37;38.05;101578.41;5063340;28;51310;-48
2022/03/05 09:02:23;;;;;;;;;11.00;10.00;;;;;21.36;37.81;101576.66;5059162;28;52059;-50
2022/03/05 09:04:48;;;;;;;;;11.50;10.50;;;;;21.39;38.74;101575.44;5060890;28;51127;-52
2022/03/05 09:07:14;;;;;;;;;15.25;13.75;;;;;21.38;38.93;101573.72;5060114;28;51088;-48
2022/03/05 09:09:39;;;;;;;;;13.75;13.75;;;;;21.35;38.42;101571.38;5087854;27;51380;-49
2022/03/05 09:12:05;;;;;;;;;12.75;11.25;;;;;21.31;39.20;101571.81;5068935;27;51201;-49
2022/03/05 09:14:30;;;;;;;;;14.25;11.50;;;;;21.26;39.22;101568.00;5057204;28;51021;-46
2022/03/05 09:16:56;;;;;;;;;14.00;12.50;;;;;21.24;38.96;101567.31;5067604;28;51134;-53
2022/03/05 09:19:22;;;;;;;;;14.00;12.75;;;;;21.18;39.03;101566.25;5059573;27;51301;-47
2022/03/05 09:21:47;;;;;;;;;19.25;15.50;;;;;21.16;39.42;101576.63;5057709;27;51782;-48
2022/03/05 09:24:13;;;;;;;;;17.25;14.25;;;;;21.14;39.58;101573.22;5057392;28;52548;-45
2022/03/05 09:26:38;;;;;;;;;16.00;14.25;;;;;21.19;39.31;101576.22;5067373;27;50962;-52
2022/03/05 09:29:03;;;;;;;;;16.50;13.50;;;;;21.24;39.63;101578.31;5066409;27;51135;-47
2022/03/05 09:31:29;;;;;;;;;15.50;14.50;;;;;21.27;39.93;101583.47;5063799;28;51796;-47
2022/03/05 09:33:55;;;;;;;;;20.25;18.50;;;;;21.28;40.07;101582.41;5058570;28;51136;-50
2022/03/05 09:36:21;;;;;;;;;17.00;14.50;;;;;21.26;40.17;101581.78;5067565;28;51069;-49
2022/03/05 09:38:48;;;;;;;;;14.75;14.25;;;;;21.24;40.28;101579.16;5066209;27;51104;-47
2022/03/05 09:41:13;;;;;;;;;20.75;20.75;;;;;21.22;39.93;101584.03;5062200;28;51988;-48
2022/03/05 09:43:39;;;;;;;;;18.75;18.00;;;;;21.22;39.89;101572.19;5060477;27;51161;-45
2022/03/05 09:46:04;;;;;;;;;20.00;17.75;;;;;21.24;39.53;101578.31;5065105;27;51248;-51
2022/03/05 09:48:30;;;;;;;;;20.75;15.25;;;;;21.28;39.95;101574.13;5071062;27;51049;-53
2022/03/05 09:50:57;;;;;;;;;17.00;16.50;;;;;21.27;40.28;101575.19;5067788;28;51643;-53
2022/03/05 09:53:30;;;;;;;;;15.25;13.25;;;;;21.27;40.21;101577.97;5059569;27;51008;-50
2022/03/05 09:55:55;;;;;;;;;16.50;15.75;;;;;21.27;39.83;101573.28;5069335;27;51376;-48
2022/03/05 09:58:21;;;;;;;;;23.00;15.25;;;;;21.33;39.68;101572.44;5069297;27;51244;-50
2022/03/05 10:00:47;;;;;;;;;19.75;16.25;;;;;21.41;40.19;101567.78;5062653;28;51363;-48
2022/03/05 10:03:13;;;;;;;;;18.25;16.25;;;;;21.45;40.11;101572.66;5060532;28;51242;-47
2022/03/05 10:05:39;;;;;;;;;15.50;14.75;;;;;21.49;40.01;101581.38;5061379;27;50965;-48
2022/03/05 10:08:16;;;;;;;;;15.25;13.00;;;;;21.50;40.02;101572.88;5065139;28;51037;-48
2022/03/05 10:10:48;;;;;;;;;17.50;14.50;;;;;21.52;40.14;101569.91;5069994;27;51178;-44
2022/03/05 10:13:17;;;;;;;;;13.00;13.00;;;;;21.55;40.75;101564.81;5058662;28;51046;-50
2022/03/05 10:15:43;;;;;;;;;14.00;11.25;;;;;21.58;40.18;101571.84;5061261;28;51124;-45
2022/03/05 10:18:08;;;;;;;;;15.50;14.25;;;;;21.61;40.01;101565.88;5072892;27;51348;-51
2022/03/05 10:20:43;;;;;;;;;17.00;12.75;;;;;21.65;39.94;101569.91;5055053;28;52183;-45
2022/03/05 10:23:10;;;;;;;;;9.25;8.50;;;;;21.69;40.21;101564.81;5067092;28;51266;-45
2022/03/05 10:25:41;;;;;;;;;16.25;13.25;;;;;21.70;40.30;101569.28;5061524;27;50994;-49
2022/03/05 10:28:37;;;;;;;;;17.50;15.00;;;;;21.71;39.96;101555.28;5056730;28;51273;-49
2022/03/05 10:31:11;;;;;;;;;3.00;3.00;;;;;21.73;40.23;101560.56;5062073;28;52152;-48
2022/03/05 10:33:42;;;;;;;;;10.25;10.25;;;;;21.75;39.94;101559.28;5069261;28;51390;-51
2022/03/05 10:36:16;;;;;;;;;15.25;14.50;;;;;21.80;39.80;101565.03;5061649;28;51186;-51
2022/03/05 10:38:55;;;;;;;;;12.00;11.00;;;;;21.88;40.36;101564.81;5064812;28;51036;-50
2022/03/05 10:41:40;;;;;;;;;15.75;12.75;;;;;21.98;40.21;101566.25;5058793;27;51959;-52
2022/03/05 10:44:15;;;;;;;;;12.50;11.00;;;;;22.03;40.52;101564.56;5057060;27;51340;-49
2022/03/05 10:46:43;;;;;;;;;12.00;10.50;;;;;22.07;41.03;101565.00;5064847;28;51173;-51
2022/03/05 10:49:16;;;;;;;;;12.75;11.25;;;;;22.13;40.44;101566.91;5059840;27;51192;-48
2022/03/05 10:52:04;;;;;;;;;14.50;11.50;;;;;22.18;40.38;101564.31;5063523;28;51862;-50
2022/03/05 10:54:34;;;;;;;;;15.25;11.50;;;;;22.22;40.20;101559.25;5058877;28;51420;-51
2022/03/05 10:57:09;;;;;;;;;16.75;13.50;;;;;22.25;40.42;101564.31;5060010;28;51217;-50
2022/03/05 10:59:39;;;;;;;;;13.00;10.50;;;;;22.26;40.48;101557.75;5067383;28;51276;-48
2022/03/05 11:02:07;;;;;;;;;11.75;10.00;;;;;22.27;40.66;101556.66;5059870;28;51737;-52
2022/03/05 11:04:35;;;;;;;;;11.25;9.50;;;;;22.26;40.18;101563.25;5056988;28;51258;-50
2022/03/05 11:07:01;;;;;;;;;21.25;19.00;;;;;22.24;39.23;101557.97;5068020;28;51255;-47
2022/03/05 11:09:29;;;;;;;;;14.00;13.25;;;;;22.28;39.43;101558.34;5056784;27;51261;-52
2022/03/05 11:11:57;;;;;;;;;16.00;14.25;;;;;22.29;39.36;101549.84;5058678;28;52156;-49